Calumet, IA

04:32 AM CDT del 24 Ottobre 2014 (GMT -0500)
Orange City Municipal | Change Station
CLOSE
Current Station
Aeroporto
Location: Orange City,
Altitudine: 431 m
Stazioni meteo nelle vicinanze

Alt. 431 m 42.99 °N, 96.06 °W | Updated 17 minutes ago

Sereno
Sereno
13 °C
Sembra 13 °C
N
15
Vento Variabile Vento da Sud

Oggi
Massima -- | Minima -- °C
--% Possibilità di precip.
Ieri
Massima -- | Minima -- °C
Precip. -- mm
7:46 AM 6:25 PM
Luna nuova, 0% visible
Pressione 1012 hPa
Visibilità 16.1 chilometri
Nuvole Sereno
Punto di rugiada 9 °C
Umidità 77%
Piovosità 0.0 mm
Spessore del manto nevoso Non disponibile.
Raggi UV 0 fuori da 12
Polline .40 fuori da 12
Qualità dell'aria Non disponibile.
Flu Activity Sporadic
METAR KORC 240915Z AUTO 18008KT 10SM CLR 13/09 A2988 RMK AO2

More Conditions Fewer Conditions

Pressione 1012 hPa
Visibilità 16.1 chilometri
Nuvole Sereno
Punto di rugiada 9 °C
Umidità 77%
Piovosità 0.0 mm
Spessore del manto nevoso Non disponibile.
Raggi UV 0 fuori da 12
Polline .40 fuori da 12
Qualità dell'aria Non disponibile.
Flu Activity Sporadic
METAR KORC 240915Z AUTO 18008KT 10SM CLR 13/09 A2988 RMK AO2

More Conditions Fewer Conditions

10-Day Weather Forecast

Almanac

Astronomia

Oct. 24, 2014 Alba Tramonto
Ora attuale 07:46 CDT 18:25 CDT
Crepuscolo civile 07:17 CDT 18:54 CDT
Crepuscolo nautico 06:44 CDT 19:27 CDT
Crepuscolo astronomico 06:11 CDT 20:00 CDT
Luna 08:27 CDT 19:04 CDT
Estensione della luce visibile 11h 36m
Lunghezza del giorno
10h 38m
Tomorrow will be 2m 42s shorter.
Luna nuova, 0% of the Moon is Illuminated
Oggi
Luna nuova
Ott 30
Primo quarto
Nov 6
Luna piena
Nov 14
Ultimo quarto
Nov 22
Nuovo

Gli estremi di oggi

State Highs State Lows

Community

WunderPhotos

Upload Photos

1,764,513 foto caricate!

WunderBlogs® & News

Nearby

Profondità neve

Stazione Profondità Altitudine
Non sono state evidenziate nuove nevicate

Attività sismica

Città  Distanza Mag. Data & Ora
Non sono state riportate attività sismiche nelle vicinanze.
Minimo Magnitudo Mostrato è 2.5.

Temperature delle acque costiere

Località Temperatura
Nessun dato dalle stazioni

Stazioni meteo nelle vicinanze